createdAt,value
2019-06-26T00:00:25.981Z,0.00
2019-06-26T00:01:25.937Z,0.00
2019-06-26T00:02:25.900Z,0.00
2019-06-26T00:03:25.865Z,0.00
2019-06-26T00:04:25.819Z,0.00
2019-06-26T00:05:25.780Z,0.00
2019-06-26T00:06:25.742Z,0.00
2019-06-26T00:07:25.707Z,0.00
2019-06-26T00:08:25.664Z,0.00
2019-06-26T00:09:25.621Z,0.00
2019-06-26T00:10:25.590Z,0.00
2019-06-26T00:11:25.544Z,0.00
2019-06-26T00:12:25.502Z,0.00
2019-06-26T00:13:26.873Z,0.00
2019-06-26T00:14:25.457Z,0.00
2019-06-26T00:15:25.384Z,0.00
2019-06-26T00:16:25.346Z,0.00
2019-06-26T00:17:25.303Z,0.00
2019-06-26T00:18:25.264Z,0.00
2019-06-26T00:19:25.224Z,0.00
2019-06-26T00:20:25.190Z,0.00
2019-06-26T00:21:25.141Z,0.00
2019-06-26T00:22:25.113Z,0.00
2019-06-26T00:23:25.069Z,0.00
2019-06-26T00:24:25.026Z,0.00
2019-06-26T00:25:24.985Z,0.00
2019-06-26T00:26:24.944Z,0.00
2019-06-26T00:27:24.910Z,0.00
2019-06-26T00:28:24.869Z,0.00
2019-06-26T00:29:24.823Z,0.00
2019-06-26T00:30:24.784Z,0.00
2019-06-26T00:31:24.746Z,0.00
2019-06-26T00:32:24.704Z,0.00
2019-06-26T00:33:24.662Z,0.00
2019-06-26T00:34:24.623Z,0.00
2019-06-26T00:35:24.599Z,0.00
2019-06-26T00:36:24.545Z,0.00
2019-06-26T00:37:24.510Z,0.00
2019-06-26T00:38:24.461Z,0.00
2019-06-26T00:39:24.422Z,0.00
2019-06-26T00:40:24.387Z,0.00
2019-06-26T00:41:24.342Z,0.00
2019-06-26T00:42:24.306Z,0.00
2019-06-26T00:43:24.268Z,0.00
2019-06-26T00:44:24.221Z,0.00
2019-06-26T00:45:24.187Z,0.00
2019-06-26T00:46:24.144Z,0.00
2019-06-26T00:47:24.105Z,0.00
2019-06-26T00:48:24.072Z,0.00
2019-06-26T00:49:24.021Z,0.00
2019-06-26T00:50:23.990Z,0.00
2019-06-26T00:51:23.945Z,0.00
2019-06-26T00:52:23.901Z,0.00
2019-06-26T00:53:23.860Z,0.00
2019-06-26T00:54:23.822Z,0.00
2019-06-26T00:55:23.782Z,0.00
2019-06-26T00:56:23.741Z,0.00
2019-06-26T00:57:23.706Z,0.00
2019-06-26T00:58:23.665Z,0.00
2019-06-26T00:59:23.622Z,0.00
2019-06-26T01:00:23.579Z,0.00
2019-06-26T01:01:23.572Z,0.00
2019-06-26T01:02:23.502Z,0.00
2019-06-26T01:03:23.458Z,0.00
2019-06-26T01:04:23.420Z,0.00
2019-06-26T01:05:23.407Z,0.00
2019-06-26T01:06:23.338Z,0.00
2019-06-26T01:07:23.301Z,0.00
2019-06-26T01:08:23.259Z,0.00
2019-06-26T01:09:23.217Z,0.00
2019-06-26T01:10:23.179Z,0.00
2019-06-26T01:11:23.137Z,0.00
2019-06-26T01:12:23.099Z,0.00
2019-06-26T01:13:23.068Z,0.00
2019-06-26T01:14:23.026Z,0.00
2019-06-26T01:15:23.000Z,0.00
2019-06-26T01:16:22.972Z,0.00
2019-06-26T01:17:22.900Z,0.00
2019-06-26T01:18:22.864Z,0.00
2019-06-26T01:19:22.816Z,0.00
2019-06-26T01:20:22.778Z,0.00
2019-06-26T01:21:22.737Z,0.00
2019-06-26T01:22:22.694Z,0.00
2019-06-26T01:23:22.653Z,0.00
2019-06-26T01:24:22.616Z,0.00
2019-06-26T01:25:22.574Z,0.00
2019-06-26T01:26:22.535Z,0.00
2019-06-26T01:27:22.492Z,0.00
2019-06-26T01:28:22.452Z,0.00
2019-06-26T01:29:22.411Z,0.00
2019-06-26T01:30:22.371Z,0.00
2019-06-26T01:31:22.332Z,0.00
2019-06-26T01:32:22.290Z,0.00
2019-06-26T01:33:22.250Z,0.00
2019-06-26T01:34:22.210Z,0.00
2019-06-26T01:35:22.166Z,0.00
2019-06-26T01:36:22.128Z,0.00
2019-06-26T01:37:22.088Z,0.00
2019-06-26T01:38:22.049Z,0.00
2019-06-26T01:39:22.004Z,0.00
2019-06-26T01:40:21.967Z,0.00
2019-06-26T01:41:21.932Z,0.00
2019-06-26T01:42:21.888Z,0.00
2019-06-26T01:43:21.845Z,0.00
2019-06-26T01:44:21.803Z,0.00
2019-06-26T01:45:21.764Z,0.00
2019-06-26T01:47:21.684Z,0.00
2019-06-26T01:48:21.643Z,0.00
2019-06-26T01:49:21.602Z,0.00
2019-06-26T01:50:21.559Z,0.00
2019-06-26T01:51:21.521Z,0.00
2019-06-26T01:52:21.480Z,0.00
2019-06-26T01:53:21.436Z,0.00
2019-06-26T01:54:21.399Z,0.00
2019-06-26T01:56:21.319Z,0.00
2019-06-26T01:57:21.277Z,0.00
2019-06-26T01:58:21.239Z,0.00
2019-06-26T01:59:21.197Z,0.00
2019-06-26T02:00:21.154Z,0.00
2019-06-26T02:01:21.112Z,0.00
2019-06-26T02:02:21.080Z,0.00
2019-06-26T02:03:21.033Z,0.00
2019-06-26T02:04:20.993Z,0.00
2019-06-26T02:05:21.019Z,0.00
2019-06-26T02:06:20.914Z,0.00
2019-06-26T02:07:20.874Z,0.00
2019-06-26T02:08:20.829Z,0.00
2019-06-26T02:09:20.794Z,0.00
2019-06-26T02:10:20.755Z,0.00
2019-06-26T02:11:20.739Z,0.00
2019-06-26T02:12:20.666Z,0.00
2019-06-26T02:13:20.626Z,0.00
2019-06-26T02:14:30.419Z,0.00
2019-06-26T02:16:20.502Z,0.00
2019-06-26T02:17:20.464Z,0.00
2019-06-26T02:18:20.425Z,0.00
2019-06-26T02:19:20.385Z,0.00
2019-06-26T02:20:20.342Z,0.00
2019-06-26T02:21:20.299Z,0.00
2019-06-26T02:22:20.258Z,0.00
2019-06-26T02:23:20.218Z,0.00
2019-06-26T02:24:20.176Z,0.00
2019-06-26T02:25:20.159Z,0.00
2019-06-26T02:26:20.096Z,0.00
2019-06-26T02:27:20.059Z,0.00
2019-06-26T02:28:20.015Z,0.00
2019-06-26T02:29:19.993Z,0.00
2019-06-26T02:30:19.933Z,0.00
2019-06-26T02:31:19.904Z,0.00
2019-06-26T02:32:19.889Z,0.00
2019-06-26T02:33:19.827Z,0.00
2019-06-26T02:34:19.779Z,0.00
2019-06-26T02:35:19.738Z,0.00
2019-06-26T02:36:19.697Z,0.00
2019-06-26T02:37:19.655Z,0.00
2019-06-26T02:38:19.615Z,0.00
2019-06-26T02:39:19.581Z,0.00
2019-06-26T02:40:19.537Z,0.00
2019-06-26T02:41:19.496Z,0.00
2019-06-26T02:42:19.456Z,0.00
2019-06-26T02:43:19.413Z,0.00
2019-06-26T02:44:19.372Z,0.00
2019-06-26T02:45:19.330Z,4.00
2019-06-26T02:46:19.294Z,4.00
2019-06-26T02:47:20.912Z,0.00
2019-06-26T02:48:19.236Z,0.00
2019-06-26T02:49:19.180Z,4.00
2019-06-26T02:50:19.125Z,4.00
2019-06-26T02:51:19.090Z,4.00
2019-06-26T02:52:19.056Z,4.00
2019-06-26T02:53:19.002Z,8.00
2019-06-26T02:54:18.974Z,4.00
2019-06-26T02:55:18.921Z,8.00
2019-06-26T02:56:18.884Z,8.00
2019-06-26T02:57:18.846Z,8.00
2019-06-26T02:58:18.806Z,8.00
2019-06-26T02:59:18.766Z,8.00
2019-06-26T03:00:18.723Z,12.00
2019-06-26T03:01:18.698Z,12.00
2019-06-26T03:02:18.637Z,12.00
2019-06-26T03:03:18.619Z,16.00
2019-06-26T03:04:18.555Z,16.00
2019-06-26T03:05:18.513Z,20.00
2019-06-26T03:06:18.477Z,24.00
2019-06-26T03:07:18.435Z,28.00
2019-06-26T03:08:18.395Z,24.00
2019-06-26T03:09:18.350Z,28.00
2019-06-26T03:10:18.314Z,32.00
2019-06-26T03:11:18.292Z,36.00
2019-06-26T03:12:18.227Z,40.00
2019-06-26T03:13:18.186Z,44.00
2019-06-26T03:14:18.147Z,44.00
2019-06-26T03:15:18.104Z,48.00
2019-06-26T03:16:18.062Z,48.00
2019-06-26T03:17:18.021Z,56.00
2019-06-26T03:18:17.980Z,60.00
2019-06-26T03:19:17.941Z,64.00
2019-06-26T03:20:17.896Z,68.00
2019-06-26T03:21:17.858Z,76.00
2019-06-26T03:22:17.815Z,80.00
2019-06-26T03:23:17.779Z,84.00
2019-06-26T03:24:17.733Z,88.00
2019-06-26T03:25:17.690Z,96.00
2019-06-26T03:26:17.650Z,96.00
2019-06-26T03:27:17.610Z,104.00
2019-06-26T03:28:17.568Z,112.00
2019-06-26T03:29:17.528Z,120.00
2019-06-26T03:30:17.489Z,120.00
2019-06-26T03:31:17.448Z,132.00
2019-06-26T03:32:17.454Z,132.00
2019-06-26T03:33:17.364Z,140.00
2019-06-26T03:34:17.320Z,148.00
2019-06-26T03:35:17.284Z,152.00
2019-06-26T03:36:17.243Z,160.00
2019-06-26T03:37:17.199Z,168.00
2019-06-26T03:38:17.161Z,176.00
2019-06-26T03:39:17.120Z,184.00
2019-06-26T03:40:17.086Z,192.00
2019-06-26T03:41:17.070Z,196.00
2019-06-26T03:42:16.997Z,204.00
2019-06-26T03:43:16.954Z,212.00
2019-06-26T03:44:16.914Z,220.00
2019-06-26T03:45:25.872Z,228.00
2019-06-26T03:46:16.831Z,236.00
2019-06-26T03:47:16.790Z,244.00
2019-06-26T03:48:16.744Z,252.00
2019-06-26T03:49:16.709Z,260.00
2019-06-26T03:50:16.664Z,272.00
2019-06-26T03:51:16.637Z,276.00
2019-06-26T03:52:16.582Z,288.00
2019-06-26T03:53:16.543Z,296.00
2019-06-26T03:54:16.500Z,304.00
2019-06-26T03:55:16.476Z,316.00
2019-06-26T03:56:16.421Z,320.00
2019-06-26T03:57:16.374Z,332.00
2019-06-26T03:58:16.332Z,340.00
2019-06-26T03:59:16.298Z,348.00
2019-06-26T04:00:16.255Z,356.00
2019-06-26T04:01:16.214Z,364.00
2019-06-26T04:02:16.173Z,380.00
2019-06-26T04:03:16.139Z,384.00
2019-06-26T04:04:16.092Z,396.00
2019-06-26T04:05:16.047Z,408.00
2019-06-26T04:06:16.008Z,416.00
2019-06-26T04:07:15.966Z,424.00
2019-06-26T04:08:18.380Z,436.00
2019-06-26T04:09:15.890Z,440.00
2019-06-26T04:10:15.845Z,452.00
2019-06-26T04:11:15.804Z,460.00
2019-06-26T04:12:15.775Z,468.00
2019-06-26T04:13:15.719Z,476.00
2019-06-26T04:14:15.681Z,488.00
2019-06-26T04:15:15.637Z,492.00
2019-06-26T04:16:15.598Z,504.00
2019-06-26T04:17:15.578Z,508.00
2019-06-26T04:18:15.514Z,520.00
2019-06-26T04:19:15.474Z,528.00
2019-06-26T04:20:15.435Z,540.00
2019-06-26T04:21:15.401Z,548.00
2019-06-26T04:22:15.351Z,556.00
2019-06-26T04:23:15.312Z,564.00
2019-06-26T04:24:15.272Z,572.00
2019-06-26T04:25:15.226Z,580.00
2019-06-26T04:26:15.198Z,588.00
2019-06-26T04:27:15.147Z,596.00
2019-06-26T04:28:15.109Z,604.00
2019-06-26T04:29:15.064Z,608.00
2019-06-26T04:30:15.026Z,620.00
2019-06-26T04:31:15.006Z,620.00
2019-06-26T04:32:14.942Z,628.00
2019-06-26T04:33:14.905Z,636.00
2019-06-26T04:34:14.862Z,648.00
2019-06-26T04:35:14.824Z,656.00
2019-06-26T04:36:14.778Z,664.00
2019-06-26T04:37:14.744Z,672.00
2019-06-26T04:38:14.693Z,680.00
2019-06-26T04:39:14.659Z,684.00
2019-06-26T04:40:14.612Z,692.00
2019-06-26T04:41:14.573Z,704.00
2019-06-26T04:42:14.533Z,704.00
2019-06-26T04:43:14.489Z,716.00
2019-06-26T04:44:14.455Z,728.00
2019-06-26T04:46:39.407Z,740.00
2019-06-26T04:47:39.158Z,752.00
2019-06-26T04:48:39.114Z,752.00
2019-06-26T04:49:39.079Z,760.00
2019-06-26T04:50:39.046Z,772.00
2019-06-26T04:51:38.988Z,776.00
2019-06-26T04:52:38.956Z,788.00
2019-06-26T04:53:38.909Z,788.00
2019-06-26T04:54:38.869Z,800.00
2019-06-26T04:55:38.826Z,804.00
2019-06-26T04:56:38.784Z,812.00
2019-06-26T04:57:38.743Z,820.00
2019-06-26T04:58:38.763Z,824.00
2019-06-26T04:59:38.691Z,832.00
2019-06-26T05:00:38.622Z,840.00
2019-06-26T05:01:38.584Z,844.00
2019-06-26T05:02:38.540Z,764.00
2019-06-26T05:03:38.505Z,768.00
2019-06-26T05:04:38.469Z,752.00
2019-06-26T05:05:39.841Z,748.00
2019-06-26T05:06:38.388Z,804.00
2019-06-26T05:07:38.335Z,792.00
2019-06-26T05:08:38.301Z,836.00
2019-06-26T05:09:38.257Z,848.00
2019-06-26T05:10:38.216Z,800.00
2019-06-26T05:11:38.175Z,744.00
2019-06-26T05:12:38.136Z,872.00
2019-06-26T05:13:38.094Z,840.00
2019-06-26T05:14:38.049Z,852.00
2019-06-26T05:15:38.010Z,936.00
2019-06-26T05:16:37.967Z,952.00
2019-06-26T05:17:37.930Z,960.00
2019-06-26T05:18:37.889Z,964.00
2019-06-26T05:19:37.847Z,972.00
2019-06-26T05:21:37.765Z,980.00
2019-06-26T05:22:37.726Z,988.00
2019-06-26T05:24:37.641Z,1004.00
2019-06-26T05:25:37.602Z,1008.00
2019-06-26T05:26:37.570Z,1012.00
2019-06-26T05:27:37.523Z,1016.00
2019-06-26T05:28:37.480Z,1020.00
2019-06-26T05:29:37.440Z,1028.00
2019-06-26T05:30:37.409Z,1032.00
2019-06-26T05:31:37.357Z,1040.00
2019-06-26T05:32:37.320Z,1044.00
2019-06-26T05:33:37.277Z,1044.00
2019-06-26T05:34:37.263Z,1056.00
2019-06-26T05:35:37.195Z,1060.00
2019-06-26T05:36:37.153Z,1064.00
2019-06-26T05:37:37.119Z,1068.00
2019-06-26T05:38:37.071Z,1076.00
2019-06-26T05:39:37.031Z,1080.00
2019-06-26T05:40:36.994Z,1080.00
2019-06-26T05:41:36.951Z,1084.00
2019-06-26T05:42:36.910Z,1092.00
2019-06-26T05:43:36.869Z,1100.00
2019-06-26T05:44:36.827Z,1100.00
2019-06-26T05:45:36.802Z,1108.00
2019-06-26T05:46:36.746Z,1112.00
2019-06-26T05:47:36.707Z,1112.00
2019-06-26T05:48:36.685Z,1112.00
2019-06-26T05:49:36.626Z,1120.00
2019-06-26T05:50:36.584Z,1128.00
2019-06-26T05:51:36.542Z,1132.00
2019-06-26T05:52:36.504Z,1140.00
2019-06-26T05:53:36.467Z,1144.00
2019-06-26T05:54:36.422Z,1148.00
2019-06-26T05:55:36.384Z,1152.00
2019-06-26T05:56:36.342Z,1152.00
2019-06-26T05:57:36.304Z,1160.00
2019-06-26T05:58:36.259Z,1160.00
2019-06-26T05:59:36.218Z,1164.00
2019-06-26T06:00:36.181Z,1168.00
2019-06-26T06:01:36.147Z,1172.00
2019-06-26T06:02:36.105Z,1172.00
2019-06-26T06:03:36.069Z,1176.00
2019-06-26T06:04:36.014Z,1184.00
2019-06-26T06:05:35.974Z,1192.00
2019-06-26T06:06:41.598Z,1200.00
2019-06-26T06:08:35.858Z,1212.00
2019-06-26T06:09:35.813Z,1212.00
2019-06-26T06:10:35.782Z,1220.00
2019-06-26T06:11:35.738Z,1224.00
2019-06-26T06:12:35.692Z,1228.00
2019-06-26T06:13:35.650Z,1236.00
2019-06-26T06:14:35.609Z,1236.00
2019-06-26T06:15:35.573Z,1240.00
2019-06-26T06:16:46.843Z,1248.00
2019-06-26T06:17:35.528Z,1244.00
2019-06-26T06:18:35.449Z,1256.00
2019-06-26T06:19:35.406Z,1260.00
2019-06-26T06:20:35.381Z,1264.00
2019-06-26T06:21:35.326Z,1272.00
2019-06-26T06:22:35.291Z,1280.00
2019-06-26T06:23:35.245Z,1276.00
2019-06-26T06:24:37.836Z,1284.00
2019-06-26T06:25:35.164Z,1284.00
2019-06-26T06:26:35.124Z,1288.00
2019-06-26T06:27:35.081Z,1296.00
2019-06-26T06:28:35.044Z,1300.00
2019-06-26T06:29:35.017Z,1312.00
2019-06-26T06:30:34.966Z,1316.00
2019-06-26T06:31:34.987Z,1324.00
2019-06-26T06:32:34.888Z,1332.00
2019-06-26T06:33:34.839Z,1340.00
2019-06-26T06:34:34.797Z,1348.00
2019-06-26T06:36:34.717Z,1368.00
2019-06-26T06:37:34.680Z,1368.00
2019-06-26T06:38:34.651Z,1376.00
2019-06-26T06:39:34.594Z,1384.00
2019-06-26T06:40:34.554Z,1388.00
2019-06-26T06:41:34.513Z,1396.00
2019-06-26T06:42:34.474Z,1392.00
2019-06-26T06:43:34.433Z,1404.00
2019-06-26T06:44:34.404Z,1408.00
2019-06-26T06:45:34.359Z,1416.00
2019-06-26T06:46:34.312Z,1416.00
2019-06-26T06:47:34.272Z,1424.00
2019-06-26T06:48:34.234Z,1432.00
2019-06-26T06:49:34.190Z,1432.00
2019-06-26T06:50:34.150Z,1448.00
2019-06-26T06:51:34.112Z,1464.00
2019-06-26T06:52:34.070Z,1464.00
2019-06-26T06:53:34.037Z,1476.00
2019-06-26T06:54:33.986Z,1472.00
2019-06-26T06:55:33.946Z,1476.00
2019-06-26T06:56:33.911Z,1488.00
2019-06-26T06:57:33.868Z,1500.00
2019-06-26T06:58:33.829Z,1496.00
2019-06-26T06:59:33.789Z,1496.00
2019-06-26T07:00:33.809Z,1504.00
2019-06-26T07:01:33.706Z,1504.00
2019-06-26T07:02:33.665Z,1504.00
2019-06-26T07:03:33.633Z,1516.00
2019-06-26T07:04:33.583Z,1528.00
2019-06-26T07:05:33.542Z,1532.00
2019-06-26T07:06:33.568Z,1532.00
2019-06-26T07:07:33.465Z,1536.00
2019-06-26T07:08:33.423Z,1556.00
2019-06-26T07:09:33.380Z,1536.00
2019-06-26T07:10:33.341Z,1548.00
2019-06-26T07:11:33.306Z,1560.00
2019-06-26T07:12:33.363Z,1568.00
2019-06-26T07:13:33.268Z,1600.00
2019-06-26T07:14:33.182Z,1604.00
2019-06-26T07:15:33.144Z,1608.00
2019-06-26T07:16:33.103Z,1600.00
2019-06-26T07:17:33.061Z,1608.00
2019-06-26T07:18:33.017Z,1620.00
2019-06-26T07:19:32.993Z,1620.00
2019-06-26T07:20:32.942Z,1628.00
2019-06-26T07:21:32.899Z,1632.00
2019-06-26T07:22:33.156Z,1628.00
2019-06-26T07:23:32.816Z,1652.00
2019-06-26T07:24:32.779Z,1648.00
2019-06-26T07:25:32.738Z,1656.00
2019-06-26T07:26:32.693Z,1664.00
2019-06-26T07:27:32.653Z,1656.00
2019-06-26T07:28:32.621Z,1660.00
2019-06-26T07:29:32.574Z,1660.00
2019-06-26T07:30:32.530Z,1668.00
2019-06-26T07:31:32.496Z,1672.00
2019-06-26T07:32:32.455Z,1688.00
2019-06-26T07:33:32.417Z,1716.00
2019-06-26T07:34:32.374Z,1724.00
2019-06-26T07:35:32.330Z,1744.00
2019-06-26T07:36:32.298Z,1740.00
2019-06-26T07:37:32.251Z,1748.00
2019-06-26T07:38:32.215Z,1764.00
2019-06-26T07:39:32.170Z,1772.00
2019-06-26T07:40:32.138Z,1772.00
2019-06-26T07:41:32.092Z,1772.00
2019-06-26T07:42:32.054Z,1792.00
2019-06-26T07:43:32.014Z,1808.00
2019-06-26T07:44:31.982Z,1824.00
2019-06-26T07:45:31.936Z,1836.00
2019-06-26T07:46:31.892Z,1824.00
2019-06-26T07:47:42.386Z,1828.00
2019-06-26T07:48:31.819Z,1848.00
2019-06-26T07:49:31.766Z,1848.00
2019-06-26T07:50:32.717Z,1848.00
2019-06-26T07:51:31.693Z,1856.00
2019-06-26T07:52:31.651Z,1876.00
2019-06-26T07:54:31.568Z,1900.00
2019-06-26T07:55:31.533Z,1900.00
2019-06-26T07:56:31.497Z,1924.00
2019-06-26T07:57:31.452Z,1940.00
2019-06-26T07:58:31.407Z,1948.00
2019-06-26T07:59:31.402Z,1980.00
2019-06-26T08:00:31.949Z,2004.00
2019-06-26T08:01:31.293Z,1988.00
2019-06-26T08:02:31.246Z,2012.00
2019-06-26T08:03:31.224Z,2032.00
2019-06-26T08:04:31.183Z,2052.00
2019-06-26T08:05:31.130Z,2060.00
2019-06-26T08:06:31.153Z,2072.00
2019-06-26T08:07:31.052Z,2084.00
2019-06-26T08:08:31.012Z,2092.00
2019-06-26T08:09:30.975Z,2116.00
2019-06-26T08:10:30.932Z,2152.00
2019-06-26T08:11:30.890Z,2168.00
2019-06-26T08:12:30.850Z,2128.00
2019-06-26T08:13:30.813Z,2136.00
2019-06-26T08:14:30.862Z,2168.00
2019-06-26T08:15:30.734Z,2164.00
2019-06-26T08:16:34.288Z,2140.00
2019-06-26T08:17:30.648Z,2212.00
2019-06-26T08:18:30.698Z,2248.00
2019-06-26T08:19:30.583Z,2204.00
2019-06-26T08:20:30.552Z,2252.00
2019-06-26T08:21:30.495Z,2240.00
2019-06-26T08:22:30.451Z,2256.00
2019-06-26T08:23:30.433Z,2256.00
2019-06-26T08:24:30.377Z,2312.00
2019-06-26T08:25:30.333Z,2276.00
2019-06-26T08:26:30.295Z,2276.00
2019-06-26T08:27:30.256Z,2276.00
2019-06-26T08:28:30.215Z,2340.00
2019-06-26T08:29:30.172Z,2340.00
2019-06-26T08:30:30.135Z,2312.00
2019-06-26T08:31:30.099Z,2340.00
2019-06-26T08:32:30.052Z,2364.00
2019-06-26T08:33:30.018Z,2408.00
2019-06-26T08:34:29.978Z,2436.00
2019-06-26T08:35:29.950Z,2416.00
2019-06-26T08:36:29.897Z,2448.00
2019-06-26T08:37:29.856Z,2460.00
2019-06-26T08:38:29.830Z,2484.00
2019-06-26T08:39:29.783Z,2428.00
2019-06-26T08:40:29.737Z,2428.00
2019-06-26T08:41:29.701Z,2440.00
2019-06-26T08:42:29.660Z,2444.00
2019-06-26T08:43:31.506Z,2448.00
2019-06-26T08:44:29.582Z,2476.00
2019-06-26T08:45:29.542Z,2480.00
2019-06-26T08:48:40.121Z,2452.00
2019-06-26T08:49:36.646Z,2516.00
2019-06-26T08:50:36.608Z,2532.00
2019-06-26T08:51:36.565Z,2540.00
2019-06-26T08:52:36.529Z,2508.00
2019-06-26T08:53:36.498Z,2504.00
2019-06-26T08:54:36.454Z,2584.00
2019-06-26T08:55:36.408Z,2588.00
2019-06-26T08:56:36.368Z,2572.00
2019-06-26T08:57:36.335Z,2612.00
2019-06-26T08:58:36.295Z,2556.00
2019-06-26T08:59:36.271Z,2580.00
2019-06-26T09:00:36.245Z,2636.00
2019-06-26T09:01:36.174Z,2584.00
2019-06-26T09:02:36.137Z,2512.00
2019-06-26T09:03:36.097Z,2588.00
2019-06-26T09:04:36.053Z,2596.00
2019-06-26T09:05:47.627Z,2704.00
2019-06-26T09:06:35.980Z,2672.00
2019-06-26T09:07:35.941Z,2676.00
2019-06-26T09:08:35.898Z,2668.00
2019-06-26T09:09:35.926Z,2660.00
2019-06-26T09:10:35.821Z,2624.00
2019-06-26T09:11:35.781Z,2716.00
2019-06-26T09:12:35.747Z,2704.00
2019-06-26T09:13:35.814Z,2728.00
2019-06-26T09:14:35.677Z,2740.00
2019-06-26T09:15:35.629Z,2756.00
2019-06-26T09:16:35.590Z,2820.00
2019-06-26T09:17:35.565Z,2812.00
2019-06-26T09:18:36.323Z,2808.00
2019-06-26T09:19:35.474Z,2816.00
2019-06-26T09:20:35.431Z,2852.00
2019-06-26T09:21:35.393Z,2860.00
2019-06-26T09:22:35.358Z,2816.00
2019-06-26T09:23:35.316Z,2896.00
2019-06-26T09:24:35.306Z,2868.00
2019-06-26T09:25:35.237Z,2836.00
2019-06-26T09:26:35.230Z,2844.00
2019-06-26T09:27:35.162Z,2924.00
2019-06-26T09:28:35.122Z,2916.00
2019-06-26T09:29:35.087Z,2844.00
2019-06-26T09:30:35.047Z,2880.00
2019-06-26T09:31:35.012Z,2972.00
2019-06-26T09:32:34.969Z,2940.00
2019-06-26T09:33:34.932Z,2936.00
2019-06-26T09:34:34.905Z,2972.00
2019-06-26T09:35:34.849Z,3000.00
2019-06-26T09:36:34.818Z,2992.00
2019-06-26T09:37:34.781Z,2984.00
2019-06-26T09:38:34.743Z,2988.00
2019-06-26T09:39:34.702Z,3020.00
2019-06-26T09:40:34.665Z,3068.00
2019-06-26T09:41:34.630Z,3080.00
2019-06-26T09:42:34.584Z,3104.00
2019-06-26T09:43:34.543Z,3108.00
2019-06-26T09:44:34.508Z,3124.00
2019-06-26T09:45:34.469Z,3148.00
2019-06-26T09:46:34.433Z,3160.00
2019-06-26T09:47:34.395Z,3188.00
2019-06-26T09:48:51.125Z,3180.00
2019-06-26T09:49:34.313Z,3212.00
2019-06-26T09:50:34.277Z,3248.00
2019-06-26T09:51:34.247Z,3268.00
2019-06-26T09:52:34.206Z,3268.00
2019-06-26T09:53:46.650Z,3244.00
2019-06-26T09:54:34.126Z,3212.00
2019-06-26T09:55:34.085Z,3220.00
2019-06-26T09:57:34.014Z,3292.00
2019-06-26T09:58:33.972Z,3296.00
2019-06-26T09:59:33.933Z,3344.00
2019-06-26T10:00:33.895Z,3376.00
2019-06-26T10:01:33.856Z,3372.00
2019-06-26T10:02:33.816Z,3384.00
2019-06-26T10:03:33.784Z,3356.00
2019-06-26T10:04:33.745Z,3408.00
2019-06-26T10:05:33.714Z,3392.00
2019-06-26T10:06:33.667Z,3468.00
2019-06-26T10:07:33.627Z,3504.00
2019-06-26T10:08:33.588Z,3500.00
2019-06-26T10:09:33.546Z,3524.00
2019-06-26T10:10:33.509Z,3524.00
2019-06-26T10:11:33.471Z,3528.00
2019-06-26T10:12:33.442Z,3556.00
2019-06-26T10:14:46.501Z,3504.00
2019-06-26T10:15:33.321Z,3548.00
2019-06-26T10:16:33.293Z,3584.00
2019-06-26T10:17:33.246Z,3652.00
2019-06-26T10:18:33.273Z,3688.00
2019-06-26T10:19:33.172Z,3724.00
2019-06-26T10:20:33.133Z,3676.00
2019-06-26T10:21:33.099Z,3704.00
2019-06-26T10:22:33.052Z,3688.00
2019-06-26T10:23:33.018Z,3704.00
2019-06-26T10:24:32.991Z,3728.00
2019-06-26T10:25:32.984Z,3740.00
2019-06-26T10:26:32.900Z,3776.00
2019-06-26T10:27:32.863Z,3820.00
2019-06-26T10:28:32.830Z,3796.00
2019-06-26T10:29:32.786Z,3772.00
2019-06-26T10:30:32.749Z,3848.00
2019-06-26T10:31:32.721Z,3868.00
2019-06-26T10:32:32.677Z,3824.00
2019-06-26T10:33:32.643Z,3888.00
2019-06-26T10:34:32.602Z,3864.00
2019-06-26T10:35:32.564Z,3900.00
2019-06-26T10:36:32.526Z,3932.00
2019-06-26T10:38:32.446Z,4000.00
2019-06-26T10:39:32.472Z,3984.00
2019-06-26T10:40:32.377Z,4012.00
2019-06-26T10:41:32.338Z,4048.00
2019-06-26T10:42:32.303Z,4096.00
2019-06-26T10:43:32.268Z,4060.00
2019-06-26T10:44:32.218Z,4012.00
2019-06-26T10:45:35.864Z,4040.00
2019-06-26T10:46:32.145Z,4136.00
2019-06-26T10:47:32.108Z,4116.00
2019-06-26T10:48:32.104Z,4152.00
2019-06-26T10:49:32.032Z,4096.00
2019-06-26T10:50:32.001Z,4176.00
2019-06-26T10:51:31.956Z,4172.00
2019-06-26T10:52:31.923Z,4260.00
2019-06-26T10:53:31.888Z,4252.00
2019-06-26T10:54:31.846Z,4216.00
2019-06-26T10:55:31.812Z,4232.00
2019-06-26T10:56:31.774Z,4236.00
2019-06-26T10:57:31.739Z,4204.00
2019-06-26T10:58:31.697Z,4292.00
2019-06-26T10:59:31.662Z,4272.00
2019-06-26T11:00:31.624Z,4368.00
2019-06-26T11:01:31.588Z,4360.00
2019-06-26T11:02:31.551Z,4352.00
2019-06-26T11:03:31.514Z,4372.00
2019-06-26T11:04:31.474Z,4384.00
2019-06-26T11:05:31.504Z,4432.00
2019-06-26T11:06:31.403Z,4444.00
2019-06-26T11:07:31.359Z,4456.00
2019-06-26T11:08:31.353Z,4496.00
2019-06-26T11:09:31.289Z,4556.00
2019-06-26T11:10:31.252Z,4508.00
2019-06-26T11:11:31.214Z,4504.00
2019-06-26T11:12:31.174Z,4524.00
2019-06-26T11:13:31.136Z,4604.00
2019-06-26T11:14:31.104Z,4680.00
2019-06-26T11:16:31.025Z,4660.00
2019-06-26T11:17:30.998Z,4624.00
2019-06-26T11:18:30.957Z,4632.00
2019-06-26T11:19:43.287Z,4652.00
2019-06-26T11:20:30.918Z,4744.00
2019-06-26T11:21:30.844Z,4784.00
2019-06-26T11:22:30.806Z,4760.00
2019-06-26T11:23:30.770Z,4768.00
2019-06-26T11:24:30.760Z,4808.00
2019-06-26T11:25:30.691Z,4840.00
2019-06-26T11:26:30.669Z,4868.00
2019-06-26T11:27:30.628Z,4884.00
2019-06-26T11:28:30.581Z,4828.00
2019-06-26T11:29:30.550Z,4700.00
2019-06-26T11:30:30.508Z,4848.00
2019-06-26T11:31:30.483Z,4996.00
2019-06-26T11:32:30.435Z,5012.00
2019-06-26T11:33:30.408Z,5004.00
2019-06-26T11:34:30.394Z,5008.00
2019-06-26T11:35:30.329Z,5076.00
2019-06-26T11:36:30.294Z,5028.00
2019-06-26T11:37:30.253Z,5112.00
2019-06-26T11:38:30.216Z,5132.00
2019-06-26T11:39:30.177Z,5176.00
2019-06-26T11:40:30.154Z,5220.00
2019-06-26T11:41:30.106Z,5264.00
2019-06-26T11:42:32.706Z,5228.00
2019-06-26T11:43:30.031Z,5248.00
2019-06-26T11:44:29.999Z,5332.00
2019-06-26T11:45:29.960Z,5468.00
2019-06-26T11:46:29.926Z,5412.00
2019-06-26T11:47:29.891Z,5404.00
2019-06-26T11:48:29.854Z,5408.00
2019-06-26T11:49:29.820Z,5532.00
2019-06-26T11:50:29.781Z,5552.00
2019-06-26T11:51:29.742Z,5596.00
2019-06-26T11:52:29.707Z,5572.00
2019-06-26T11:53:29.670Z,5548.00
2019-06-26T11:54:29.638Z,5660.00
2019-06-26T11:55:29.599Z,5688.00
2019-06-26T11:56:29.581Z,5556.00
2019-06-26T11:57:29.539Z,5616.00
2019-06-26T11:59:29.450Z,5704.00
2019-06-26T12:00:29.413Z,5764.00
2019-06-26T12:01:29.377Z,5724.00
2019-06-26T12:02:29.344Z,5776.00
2019-06-26T12:03:29.306Z,5900.00
2019-06-26T12:04:29.274Z,5744.00
2019-06-26T12:05:29.236Z,5620.00
2019-06-26T12:07:16.586Z,5788.00
2019-06-26T12:08:18.537Z,5784.00
2019-06-26T12:09:16.519Z,5856.00
2019-06-26T12:10:16.478Z,5896.00
2019-06-26T12:11:16.446Z,5868.00
2019-06-26T12:12:16.419Z,5900.00
2019-06-26T12:13:16.388Z,5932.00
2019-06-26T12:14:16.340Z,6000.00
2019-06-26T12:15:16.302Z,6040.00
2019-06-26T12:16:16.275Z,6048.00
2019-06-26T12:17:16.238Z,6060.00
2019-06-26T12:18:16.255Z,6148.00
2019-06-26T12:19:19.082Z,6040.00
2019-06-26T12:20:19.144Z,6192.00
2019-06-26T12:21:16.087Z,6188.00
2019-06-26T12:22:16.051Z,6224.00
2019-06-26T12:23:16.015Z,6352.00
2019-06-26T12:24:15.978Z,6452.00
2019-06-26T12:25:15.943Z,6412.00
2019-06-26T12:26:15.914Z,6336.00
2019-06-26T12:27:15.898Z,6380.00
2019-06-26T12:28:15.845Z,6368.00
2019-06-26T12:29:15.802Z,6448.00
2019-06-26T12:30:15.766Z,6596.00
2019-06-26T12:31:15.741Z,6568.00
2019-06-26T12:32:15.701Z,6724.00
2019-06-26T12:33:15.677Z,6668.00
2019-06-26T12:34:15.629Z,6840.00
2019-06-26T12:35:15.596Z,7084.00
2019-06-26T12:36:15.563Z,7164.00
2019-06-26T12:37:15.525Z,7420.00
2019-06-26T12:38:15.489Z,7772.00
2019-06-26T12:39:15.453Z,7988.00
2019-06-26T12:40:15.479Z,8304.00
2019-06-26T12:41:15.389Z,8348.00
2019-06-26T12:42:15.355Z,8416.00
2019-06-26T12:43:15.314Z,8620.00